• Join FlightAware (Why Join?)
  • Login
  • US Flag 
12:55PM EST


 

Airport Tracker/Info


-or-


 

Live Flight TrackerFlight Track Log ✈ SWA1263 ✈ 20-Jul-2013 ✈ KBWI - KMHT

Flight Track Log - Related Links

Times and Time Zones

All times are in EDT time to prevent confusion due to time zone crossing. See the SWA1263 flight status page for this flight to view local times or setup timezone preferences in your user account.

Time Position Orientation Groundspeed Altitude Reporting Facility
EDT Latitude Longitude Course Direction KTS MPH feet Rate Location/Type
06:47AM 39.1833 -76.7167 90° East 169 194 1,600  Level Potomac TRACON
06:48AM 39.1500 -76.7500 218° Southwest 234 269 3,600 1,980 Climbing Potomac TRACON
06:49AM 39.1167 -76.6667 117° Southeast 289 333 5,700 2,220 Climbing Potomac TRACON
06:51AM 39.1331 -76.4692 84° East 322 371 10,100 1,920 Climbing Washington Center
06:52AM 39.1403 -76.3464 86° East 327 376 11,500 1,680 Climbing Washington Center
06:53AM 39.1667 -76.6202 90° East  Level FlightAware Approximate
06:53AM 39.1514 -76.2125 84° East 352 405 13,600  Level Washington Center
06:54AM 39.1686 -76.0922 79° East 372 428 16,100 1,860 Climbing Washington Center
06:55AM 39.1836 -75.9558 82° East 372 428 17,400 1,740 Climbing Washington Center
06:56AM 39.2319 -75.8247 65° Northeast 385 443 19,600 2,160 Climbing Washington Center
06:57AM 39.3156 -75.7231 43° Northeast 391 450 21,800 1,920 Climbing Washington Center
06:58AM 39.3989 -75.6158 45° Northeast 404 465 23,500 1,620 Climbing Washington Center
06:59AM 39.4822 -75.5056 46° Northeast 412 474 25,100 1,560 Climbing Washington Center
07:00AM 39.5675 -75.3950 45° Northeast 424 488 26,700 1,380 Climbing Washington Center
07:02AM 39.7642 -75.1242 47° Northeast 446 513 29,800 1,320 Climbing New York Center
07:03AM 39.8500 -74.9997 48° Northeast 451 519 31,200 1,440 Climbing New York Center
07:04AM 39.9314 -74.8831 48° Northeast 451 519 32,700 1,380 Climbing New York Center
07:05AM 40.0428 -74.7944 31° Northeast 434 499 34,000 1,020 Climbing New York Center
07:06AM 40.1461 -74.7600 14° North 415 478 34,800 480 Climbing New York Center
07:07AM 40.2600 -74.7175 16° North 415 478 35,000 60 Climbing New York Center
07:09AM 40.4825 -74.6364 15° North 441 507 35,000  Level Boston Center
07:10AM 40.5958 -74.5939 16° North 431 496 35,000  Level Boston Center
07:11AM 40.7153 -74.5594 12° North 431 496 35,000  Level Boston Center
07:12AM 40.8308 -74.5111 18° North 431 496 35,000  Level Boston Center
07:13AM 40.9464 -74.4653 17° North 431 496 35,000  Level Boston Center
07:14AM 41.0636 -74.4278 14° North 431 496 35,000  Level Boston Center
07:15AM 41.1978 -74.3850 13° North 445 512 35,000  Level Boston Center
07:16AM 41.3006 -74.3411 18° North 445 512 35,000  Level Boston Center
07:17AM 41.4158 -74.3003 15° North 434 499 35,000  Level Boston Center
07:18AM 41.5522 -74.2514 15° North 444 511 35,000 -360 Level Boston Center
07:19AM 41.6569 -74.2156 14° North 444 511 34,300 -840 Descending Boston Center
07:20AM 41.7744 -74.1717 16° North 438 504 33,400 -1,020 Descending Boston Center
07:21AM 41.9044 -74.1278 14° North 423 487 32,300 -1,080 Descending Boston Center
07:22AM 42.0178 -74.0608 24° Northeast 433 498 31,300 -960 Descending Boston Center
07:23AM 42.0867 -73.9117 58° Northeast 430 495 30,400 -900 Descending Boston Center
07:24AM 42.1531 -73.7619 59° Northeast 442 509 29,500 -960 Descending Boston Center
07:25AM 42.2192 -73.6147 59° Northeast 472 543 28,500 -960 Descending Boston Center
07:26AM 42.2853 -73.4617 60° Northeast 472 543 27,600 -960 Descending Boston Center
07:27AM 42.3533 -73.3053 59° Northeast 472 543 26,600 -1,080 Descending Boston Center
07:28AM 42.4189 -73.1544 59° Northeast 472 543 25,500 -1,080 Descending Boston Center
07:29AM 42.4844 -73.0117 58° Northeast 459 528 24,500 -1,440 Descending Boston Center
07:30AM 42.5475 -72.8600 61° Northeast 459 528 22,700 -2,040 Descending Boston Center
07:31AM 42.5647 -72.7078 81° East 423 487 20,500 -2,580 Descending Boston Center
07:32AM 42.6089 -72.5586 68° East 417 480 17,600 -2,700 Descending Boston Center
07:33AM 42.6567 -72.4175 65° Northeast 417 480 15,200 -2,460 Descending Boston Center
07:34AM 42.7086 -72.2622 65° Northeast 412 474 12,700 -2,400 Descending Boston Center
07:35AM 42.7522 -72.1375 65° Northeast 401 461 10,400 -1,320 Descending Boston Center
07:36AM 42.7975 -71.9986 66° East 379 436 10,100 -720 Descending Boston Center
07:37AM 42.8181 -71.8994 74° East 324 373 9,000 -1,800 Descending Boston Center
07:38AM 42.8006 -71.7694 100° East 299 344 6,600 -1,860 Descending Boston Center
07:39AM 42.7856 -71.6706 102° East 305 351 5,300 -1,080 Descending Boston Center
07:40AM 42.8244 -71.5767 61° Northeast 259 298 4,500 -1,200 Descending Boston Center
07:41AM 42.8617 -71.5336 40° Northeast 206 237 3,000 -1,740 Descending Boston Center
07:42AM 42.9000 -71.5000 33° Northeast 191 220 1,500 -840 Descending KA90
07:43AM 42.9333 -71.4333 56° Northeast 197 227 1,600 720 Climbing KA90
07:44AM 42.9500 -71.3500 75° East 252 290 3,000 720 Climbing KA90
07:45AM 42.9000 -71.3000 144° Southeast 239 275 3,000  Level KA90
07:46AM 42.8667 -71.3500 228° Southwest 203 234 3,000 -60 Level KA90
07:47AM 42.8333 -71.4167 236° Southwest 204 235 2,900 -240 Descending KA90
07:48AM 42.8000 -71.4833 236° Southwest 201 231 2,500 -360 Descending KA90
07:49AM 42.8167 -71.5333 294° West 186 214 2,200 -300 Descending KA90
07:50AM 42.8667 -71.5333 360° North 181 208 2,000 -540 Descending KA90
07:51AM 42.9000 -71.4833 48° Northeast 170 196 1,200 -840 Descending KA90
07:52AM 42.9167 -71.4500 56° Northeast 157 181 500 -780 Descending KA90
07:54AM 42.9167 -71.4333 316° Northwest  Level FlightAware Approximate
08:01AM 42.9328 -71.4358 316° Northwest  Level Estimated